sensor_id;sensor_type;location;lat;lon;timestamp;pressure;altitude;pressure_sealevel;temperature
63689;BMP280;54895;40.928;14.480;2023-04-25T00:01:49;100647.44;;;18.03
63689;BMP280;54895;40.928;14.480;2023-04-25T00:04:17;100627.25;;;17.66
63689;BMP280;54895;40.928;14.480;2023-04-25T00:06:44;100626.31;;;17.90
63689;BMP280;54895;40.928;14.480;2023-04-25T00:09:11;100669.59;;;18.49
63689;BMP280;54895;40.928;14.480;2023-04-25T00:11:38;100668.31;;;18.40
63689;BMP280;54895;40.928;14.480;2023-04-25T00:14:04;100654.13;;;18.21
63689;BMP280;54895;40.928;14.480;2023-04-25T00:16:32;100635.38;;;18.23
63689;BMP280;54895;40.928;14.480;2023-04-25T00:19:01;100619.78;;;17.93
63689;BMP280;54895;40.928;14.480;2023-04-25T00:21:30;100623.34;;;18.05
63689;BMP280;54895;40.928;14.480;2023-04-25T00:23:57;100641.78;;;18.27
63689;BMP280;54895;40.928;14.480;2023-04-25T00:26:24;100642.75;;;18.41
63689;BMP280;54895;40.928;14.480;2023-04-25T00:28:51;100635.25;;;18.40
63689;BMP280;54895;40.928;14.480;2023-04-25T00:31:18;100615.41;;;18.07
63689;BMP280;54895;40.928;14.480;2023-04-25T00:33:44;100580.41;;;17.33
63689;BMP280;54895;40.928;14.480;2023-04-25T00:36:11;100599.19;;;17.69
63689;BMP280;54895;40.928;14.480;2023-04-25T00:38:37;100604.38;;;17.57
63689;BMP280;54895;40.928;14.480;2023-04-25T00:41:06;100576.09;;;17.56
63689;BMP280;54895;40.928;14.480;2023-04-25T00:43:34;100605.03;;;17.84
63689;BMP280;54895;40.928;14.480;2023-04-25T00:46:02;100589.66;;;17.58
63689;BMP280;54895;40.928;14.480;2023-04-25T00:48:29;100571.94;;;17.46
63689;BMP280;54895;40.928;14.480;2023-04-25T00:50:58;100586.56;;;17.71
63689;BMP280;54895;40.928;14.480;2023-04-25T00:53:27;100602.63;;;17.79
63689;BMP280;54895;40.928;14.480;2023-04-25T00:55:54;100590.66;;;17.63
63689;BMP280;54895;40.928;14.480;2023-04-25T00:58:22;100586.00;;;17.63
63689;BMP280;54895;40.928;14.480;2023-04-25T01:00:52;100581.88;;;17.53
63689;BMP280;54895;40.928;14.480;2023-04-25T01:03:19;100569.47;;;16.95
63689;BMP280;54895;40.928;14.480;2023-04-25T01:05:46;100548.72;;;17.05
63689;BMP280;54895;40.928;14.480;2023-04-25T01:08:13;100585.59;;;17.21
63689;BMP280;54895;40.928;14.480;2023-04-25T01:10:40;100592.91;;;17.38
63689;BMP280;54895;40.928;14.480;2023-04-25T01:13:08;100597.72;;;17.49
63689;BMP280;54895;40.928;14.480;2023-04-25T01:15:34;100591.47;;;17.37
63689;BMP280;54895;40.928;14.480;2023-04-25T01:18:03;100550.63;;;17.21
63689;BMP280;54895;40.928;14.480;2023-04-25T01:24:49;100575.34;;;17.37
63689;BMP280;54895;40.928;14.480;2023-04-25T01:27:18;100571.50;;;17.40
63689;BMP280;54895;40.928;14.480;2023-04-25T01:29:45;100567.38;;;17.39
63689;BMP280;54895;40.928;14.480;2023-04-25T01:32:13;100553.28;;;17.12
63689;BMP280;54895;40.928;14.480;2023-04-25T01:34:40;100528.53;;;16.77
63689;BMP280;54895;40.928;14.480;2023-04-25T01:37:07;100510.78;;;16.65
63689;BMP280;54895;40.928;14.480;2023-04-25T01:39:33;100514.31;;;16.94
63689;BMP280;54895;40.928;14.480;2023-04-25T01:42:00;100515.38;;;17.08
63689;BMP280;54895;40.928;14.480;2023-04-25T01:44:28;100520.50;;;17.23
63689;BMP280;54895;40.928;14.480;2023-04-25T01:46:55;100534.06;;;17.15
63689;BMP280;54895;40.928;14.480;2023-04-25T01:49:22;100527.69;;;17.11
63689;BMP280;54895;40.928;14.480;2023-04-25T01:51:50;100533.63;;;17.19
63689;BMP280;54895;40.928;14.480;2023-04-25T01:54:18;100526.31;;;17.29
63689;BMP280;54895;40.928;14.480;2023-04-25T01:56:50;100545.78;;;17.56
63689;BMP280;54895;40.928;14.480;2023-04-25T01:59:18;100528.63;;;17.42
63689;BMP280;54895;40.928;14.480;2023-04-25T02:02:13;100512.09;;;17.00
63689;BMP280;54895;40.928;14.480;2023-04-25T02:04:40;100499.59;;;16.95
63689;BMP280;54895;40.928;14.480;2023-04-25T02:07:07;100508.03;;;17.08
63689;BMP280;54895;40.928;14.480;2023-04-25T02:09:44;100541.75;;;17.28
63689;BMP280;54895;40.928;14.480;2023-04-25T02:12:12;100544.81;;;17.15
63689;BMP280;54895;40.928;14.480;2023-04-25T02:15:05;100536.22;;;17.17
63689;BMP280;54895;40.928;14.480;2023-04-25T02:17:40;100535.78;;;17.20
63689;BMP280;54895;40.928;14.480;2023-04-25T02:20:07;100528.56;;;17.23
63689;BMP280;54895;40.928;14.480;2023-04-25T02:22:34;100525.75;;;17.21
63689;BMP280;54895;40.928;14.480;2023-04-25T02:25:01;100527.63;;;17.28
63689;BMP280;54895;40.928;14.480;2023-04-25T02:27:28;100514.66;;;17.07
63689;BMP280;54895;40.928;14.480;2023-04-25T02:29:56;100503.94;;;17.17
63689;BMP280;54895;40.928;14.480;2023-04-25T02:32:23;100491.53;;;16.95
63689;BMP280;54895;40.928;14.480;2023-04-25T02:34:49;100469.59;;;16.89
63689;BMP280;54895;40.928;14.480;2023-04-25T02:37:16;100490.25;;;16.96
63689;BMP280;54895;40.928;14.480;2023-04-25T02:39:45;100464.66;;;16.95
63689;BMP280;54895;40.928;14.480;2023-04-25T02:42:12;100476.44;;;17.09
63689;BMP280;54895;40.928;14.480;2023-04-25T02:44:38;100476.16;;;17.05
63689;BMP280;54895;40.928;14.480;2023-04-25T02:47:05;100472.63;;;17.02
63689;BMP280;54895;40.928;14.480;2023-04-25T02:49:32;100470.50;;;17.01
63689;BMP280;54895;40.928;14.480;2023-04-25T02:51:59;100460.28;;;16.99
63689;BMP280;54895;40.928;14.480;2023-04-25T02:54:27;100462.56;;;17.03
63689;BMP280;54895;40.928;14.480;2023-04-25T02:56:55;100456.34;;;17.10
63689;BMP280;54895;40.928;14.480;2023-04-25T02:59:27;100449.28;;;17.05
63689;BMP280;54895;40.928;14.480;2023-04-25T03:01:53;100468.97;;;17.07
63689;BMP280;54895;40.928;14.480;2023-04-25T03:04:20;100460.28;;;16.90
63689;BMP280;54895;40.928;14.480;2023-04-25T03:06:47;100457.66;;;16.73
63689;BMP280;54895;40.928;14.480;2023-04-25T03:09:14;100443.78;;;16.67
63689;BMP280;54895;40.928;14.480;2023-04-25T03:11:41;100428.50;;;16.69
63689;BMP280;54895;40.928;14.480;2023-04-25T03:14:08;100440.56;;;16.78
63689;BMP280;54895;40.928;14.480;2023-04-25T03:16:34;100423.72;;;16.42
63689;BMP280;54895;40.928;14.480;2023-04-25T03:19:02;100428.22;;;16.39
63689;BMP280;54895;40.928;14.480;2023-04-25T03:25:26;100477.06;;;17.17
63689;BMP280;54895;40.928;14.480;2023-04-25T03:27:53;100487.25;;;17.18
63689;BMP280;54895;40.928;14.480;2023-04-25T03:30:20;100461.97;;;16.95
63689;BMP280;54895;40.928;14.480;2023-04-25T03:32:46;100460.16;;;16.97
63689;BMP280;54895;40.928;14.480;2023-04-25T03:35:16;100460.19;;;17.07
63689;BMP280;54895;40.928;14.480;2023-04-25T03:37:43;100472.97;;;17.25
63689;BMP280;54895;40.928;14.480;2023-04-25T03:40:16;100481.91;;;17.28
63689;BMP280;54895;40.928;14.480;2023-04-25T03:43:04;100476.00;;;17.03
63689;BMP280;54895;40.928;14.480;2023-04-25T03:45:31;100451.53;;;16.99
63689;BMP280;54895;40.928;14.480;2023-04-25T03:47:57;100474.31;;;16.98
63689;BMP280;54895;40.928;14.480;2023-04-25T03:50:24;100443.09;;;16.76
63689;BMP280;54895;40.928;14.480;2023-04-25T03:52:51;100476.69;;;16.94
63689;BMP280;54895;40.928;14.480;2023-04-25T03:55:18;100465.25;;;16.93
63689;BMP280;54895;40.928;14.480;2023-04-25T03:57:44;100459.16;;;16.93
63689;BMP280;54895;40.928;14.480;2023-04-25T04:00:12;100455.50;;;16.98
63689;BMP280;54895;40.928;14.480;2023-04-25T04:02:42;100448.56;;;17.04
63689;BMP280;54895;40.928;14.480;2023-04-25T04:05:10;100458.09;;;16.79
63689;BMP280;54895;40.928;14.480;2023-04-25T04:07:42;100441.84;;;16.77
63689;BMP280;54895;40.928;14.480;2023-04-25T04:10:10;100453.88;;;16.85
63689;BMP280;54895;40.928;14.480;2023-04-25T04:12:39;100435.03;;;16.76
63689;BMP280;54895;40.928;14.480;2023-04-25T04:15:06;100407.69;;;16.60
63689;BMP280;54895;40.928;14.480;2023-04-25T04:17:34;100421.38;;;16.55
63689;BMP280;54895;40.928;14.480;2023-04-25T04:20:01;100444.97;;;16.83
63689;BMP280;54895;40.928;14.480;2023-04-25T04:22:32;100456.59;;;16.95
63689;BMP280;54895;40.928;14.480;2023-04-25T04:25:04;100460.03;;;17.05
63689;BMP280;54895;40.928;14.480;2023-04-25T04:27:51;100456.31;;;16.91
63689;BMP280;54895;40.928;14.480;2023-04-25T04:30:39;100462.28;;;16.99
63689;BMP280;54895;40.928;14.480;2023-04-25T04:33:08;100463.69;;;17.00
63689;BMP280;54895;40.928;14.480;2023-04-25T04:35:36;100472.91;;;16.97
63689;BMP280;54895;40.928;14.480;2023-04-25T04:38:02;100450.66;;;16.87
63689;BMP280;54895;40.928;14.480;2023-04-25T04:40:33;100415.84;;;16.53
63689;BMP280;54895;40.928;14.480;2023-04-25T04:43:19;100412.66;;;16.64
63689;BMP280;54895;40.928;14.480;2023-04-25T04:46:03;100449.84;;;17.03
63689;BMP280;54895;40.928;14.480;2023-04-25T04:48:35;100442.06;;;16.98
63689;BMP280;54895;40.928;14.480;2023-04-25T04:51:28;100475.91;;;17.20
63689;BMP280;54895;40.928;14.480;2023-04-25T04:54:13;100470.69;;;17.12
63689;BMP280;54895;40.928;14.480;2023-04-25T04:56:52;100497.34;;;17.46
63689;BMP280;54895;40.928;14.480;2023-04-25T04:59:37;100487.00;;;17.43
63689;BMP280;54895;40.928;14.480;2023-04-25T05:02:27;100500.88;;;17.49
63689;BMP280;54895;40.928;14.480;2023-04-25T05:05:32;100498.88;;;17.40
63689;BMP280;54895;40.928;14.480;2023-04-25T05:08:25;100511.41;;;17.64
63689;BMP280;54895;40.928;14.480;2023-04-25T05:11:09;100512.84;;;17.84
63689;BMP280;54895;40.928;14.480;2023-04-25T05:13:58;100537.31;;;18.07
63689;BMP280;54895;40.928;14.480;2023-04-25T05:16:37;100546.41;;;18.02
63689;BMP280;54895;40.928;14.480;2023-04-25T05:19:22;100529.41;;;17.71
63689;BMP280;54895;40.928;14.480;2023-04-25T05:22:01;100528.41;;;17.95
63689;BMP280;54895;40.928;14.480;2023-04-25T05:24:48;100517.78;;;17.78
63689;BMP280;54895;40.928;14.480;2023-04-25T05:27:47;100510.97;;;17.77
63689;BMP280;54895;40.928;14.480;2023-04-25T05:30:34;100522.03;;;18.09
63689;BMP280;54895;40.928;14.480;2023-04-25T05:33:09;100516.38;;;18.05
63689;BMP280;54895;40.928;14.480;2023-04-25T05:35:35;100532.09;;;17.90
63689;BMP280;54895;40.928;14.480;2023-04-25T05:38:02;100539.88;;;18.14
63689;BMP280;54895;40.928;14.480;2023-04-25T05:40:48;100533.47;;;18.10
63689;BMP280;54895;40.928;14.480;2023-04-25T05:43:38;100534.09;;;18.18
63689;BMP280;54895;40.928;14.480;2023-04-25T05:46:21;100551.88;;;18.42
63689;BMP280;54895;40.928;14.480;2023-04-25T05:49:07;100549.88;;;18.52
63689;BMP280;54895;40.928;14.480;2023-04-25T05:51:53;100540.28;;;18.30
63689;BMP280;54895;40.928;14.480;2023-04-25T05:54:40;100551.56;;;18.57
63689;BMP280;54895;40.928;14.480;2023-04-25T05:57:07;100565.03;;;18.57
63689;BMP280;54895;40.928;14.480;2023-04-25T05:59:34;100585.44;;;18.78
63689;BMP280;54895;40.928;14.480;2023-04-25T06:02:01;100567.66;;;18.07
63689;BMP280;54895;40.928;14.480;2023-04-25T06:04:29;100585.06;;;18.54
63689;BMP280;54895;40.928;14.480;2023-04-25T06:06:56;100601.34;;;18.75
63689;BMP280;54895;40.928;14.480;2023-04-25T06:09:23;100615.59;;;18.86
63689;BMP280;54895;40.928;14.480;2023-04-25T06:11:49;100611.56;;;18.76
63689;BMP280;54895;40.928;14.480;2023-04-25T06:14:16;100615.91;;;18.90
63689;BMP280;54895;40.928;14.480;2023-04-25T06:16:48;100633.84;;;19.16
63689;BMP280;54895;40.928;14.480;2023-04-25T06:19:15;100639.38;;;19.18
63689;BMP280;54895;40.928;14.480;2023-04-25T06:21:43;100644.50;;;19.14
63689;BMP280;54895;40.928;14.480;2023-04-25T06:24:10;100628.38;;;18.95
63689;BMP280;54895;40.928;14.480;2023-04-25T06:26:37;100638.63;;;18.87
63689;BMP280;54895;40.928;14.480;2023-04-25T06:29:04;100623.41;;;18.92
63689;BMP280;54895;40.928;14.480;2023-04-25T06:31:31;100647.22;;;18.95
63689;BMP280;54895;40.928;14.480;2023-04-25T06:34:00;100634.13;;;19.20
63689;BMP280;54895;40.928;14.480;2023-04-25T06:36:29;100651.28;;;19.25
63689;BMP280;54895;40.928;14.480;2023-04-25T06:39:03;100659.22;;;19.53
63689;BMP280;54895;40.928;14.480;2023-04-25T06:41:29;100690.59;;;19.89
63689;BMP280;54895;40.928;14.480;2023-04-25T06:43:59;100719.22;;;20.24
63689;BMP280;54895;40.928;14.480;2023-04-25T06:46:50;100716.38;;;20.75
63689;BMP280;54895;40.928;14.480;2023-04-25T06:49:18;100765.88;;;21.22
63689;BMP280;54895;40.928;14.480;2023-04-25T06:51:45;100773.91;;;21.43
63689;BMP280;54895;40.928;14.480;2023-04-25T06:54:12;100768.94;;;21.28
63689;BMP280;54895;40.928;14.480;2023-04-25T06:56:47;100775.78;;;20.85
63689;BMP280;54895;40.928;14.480;2023-04-25T06:59:15;100769.59;;;20.94
63689;BMP280;54895;40.928;14.480;2023-04-25T07:01:44;100770.19;;;21.04
63689;BMP280;54895;40.928;14.480;2023-04-25T07:04:17;100763.72;;;21.09
63689;BMP280;54895;40.928;14.480;2023-04-25T07:06:49;100780.22;;;21.36
63689;BMP280;54895;40.928;14.480;2023-04-25T07:09:19;100769.88;;;21.21
63689;BMP280;54895;40.928;14.480;2023-04-25T07:11:48;100760.69;;;21.14
63689;BMP280;54895;40.928;14.480;2023-04-25T07:14:14;100758.75;;;21.05
63689;BMP280;54895;40.928;14.480;2023-04-25T07:16:42;100746.44;;;20.70
63689;BMP280;54895;40.928;14.480;2023-04-25T07:19:08;100733.72;;;20.61
63689;BMP280;54895;40.928;14.480;2023-04-25T07:21:35;100752.28;;;20.55
63689;BMP280;54895;40.928;14.480;2023-04-25T07:24:04;100743.78;;;20.28
63689;BMP280;54895;40.928;14.480;2023-04-25T07:26:34;100748.28;;;20.67
63689;BMP280;54895;40.928;14.480;2023-04-25T07:29:21;100751.47;;;21.08
63689;BMP280;54895;40.928;14.480;2023-04-25T07:31:49;100761.78;;;21.00
63689;BMP280;54895;40.928;14.480;2023-04-25T07:34:16;100751.19;;;20.81
63689;BMP280;54895;40.928;14.480;2023-04-25T07:36:44;100748.13;;;20.75
63689;BMP280;54895;40.928;14.480;2023-04-25T07:39:11;100746.38;;;20.47
63689;BMP280;54895;40.928;14.480;2023-04-25T07:41:38;100728.56;;;20.65
63689;BMP280;54895;40.928;14.480;2023-04-25T07:44:06;100747.59;;;20.67
63689;BMP280;54895;40.928;14.480;2023-04-25T07:46:34;100740.78;;;21.10
63689;BMP280;54895;40.928;14.480;2023-04-25T07:49:02;100736.19;;;21.01
63689;BMP280;54895;40.928;14.480;2023-04-25T07:51:29;100769.41;;;21.93
63689;BMP280;54895;40.928;14.480;2023-04-25T07:53:59;100780.94;;;21.82
63689;BMP280;54895;40.928;14.480;2023-04-25T07:56:29;100760.91;;;21.99
63689;BMP280;54895;40.928;14.480;2023-04-25T07:58:56;100792.22;;;22.99
63689;BMP280;54895;40.928;14.480;2023-04-25T08:01:24;100798.94;;;22.98
63689;BMP280;54895;40.928;14.480;2023-04-25T08:03:57;100793.75;;;23.02
63689;BMP280;54895;40.928;14.480;2023-04-25T08:06:34;100794.47;;;23.03
63689;BMP280;54895;40.928;14.480;2023-04-25T08:09:21;100803.66;;;23.36
63689;BMP280;54895;40.928;14.480;2023-04-25T08:11:48;100789.94;;;23.07
63689;BMP280;54895;40.928;14.480;2023-04-25T08:14:18;100777.72;;;22.95
63689;BMP280;54895;40.928;14.480;2023-04-25T08:16:46;100778.88;;;22.53
63689;BMP280;54895;40.928;14.480;2023-04-25T08:19:13;100779.53;;;22.40
63689;BMP280;54895;40.928;14.480;2023-04-25T08:21:40;100785.81;;;22.31
63689;BMP280;54895;40.928;14.480;2023-04-25T08:24:11;100762.44;;;22.02
63689;BMP280;54895;40.928;14.480;2023-04-25T08:26:40;100786.72;;;22.47
63689;BMP280;54895;40.928;14.480;2023-04-25T08:29:09;100783.78;;;22.68
63689;BMP280;54895;40.928;14.480;2023-04-25T08:31:39;100790.50;;;22.31
63689;BMP280;54895;40.928;14.480;2023-04-25T08:34:07;100792.00;;;22.70
63689;BMP280;54895;40.928;14.480;2023-04-25T08:36:38;100798.03;;;23.32
63689;BMP280;54895;40.928;14.480;2023-04-25T08:39:08;100795.88;;;23.17
63689;BMP280;54895;40.928;14.480;2023-04-25T08:41:45;100783.50;;;22.76
63689;BMP280;54895;40.928;14.480;2023-04-25T08:44:12;100791.69;;;22.28
63689;BMP280;54895;40.928;14.480;2023-04-25T08:46:40;100799.41;;;22.56
63689;BMP280;54895;40.928;14.480;2023-04-25T08:49:20;100811.50;;;22.92
63689;BMP280;54895;40.928;14.480;2023-04-25T08:51:49;100797.81;;;23.28
63689;BMP280;54895;40.928;14.480;2023-04-25T08:54:20;100790.06;;;22.34
63689;BMP280;54895;40.928;14.480;2023-04-25T08:56:49;100812.81;;;23.56
63689;BMP280;54895;40.928;14.480;2023-04-25T08:59:16;100805.47;;;23.45
63689;BMP280;54895;40.928;14.480;2023-04-25T09:01:46;100784.19;;;22.76
63689;BMP280;54895;40.928;14.480;2023-04-25T09:04:13;100782.38;;;22.67
63689;BMP280;54895;40.928;14.480;2023-04-25T09:06:40;100784.59;;;22.71
63689;BMP280;54895;40.928;14.480;2023-04-25T09:09:08;100762.78;;;22.44
63689;BMP280;54895;40.928;14.480;2023-04-25T09:11:37;100781.03;;;22.19
63689;BMP280;54895;40.928;14.480;2023-04-25T09:14:18;100787.81;;;22.67
63689;BMP280;54895;40.928;14.480;2023-04-25T09:17:06;100778.66;;;22.49
63689;BMP280;54895;40.928;14.480;2023-04-25T09:19:46;100769.84;;;22.49
63689;BMP280;54895;40.928;14.480;2023-04-25T09:22:26;100783.53;;;22.39
63689;BMP280;54895;40.928;14.480;2023-04-25T09:24:53;100773.78;;;22.59
63689;BMP280;54895;40.928;14.480;2023-04-25T09:27:23;100787.66;;;22.90
63689;BMP280;54895;40.928;14.480;2023-04-25T09:29:58;100782.69;;;22.73
63689;BMP280;54895;40.928;14.480;2023-04-25T09:32:37;100779.91;;;22.85
63689;BMP280;54895;40.928;14.480;2023-04-25T09:35:05;100777.13;;;22.96
63689;BMP280;54895;40.928;14.480;2023-04-25T09:37:32;100769.94;;;22.76
63689;BMP280;54895;40.928;14.480;2023-04-25T09:40:19;100764.81;;;22.32
63689;BMP280;54895;40.928;14.480;2023-04-25T09:42:56;100750.44;;;22.29
63689;BMP280;54895;40.928;14.480;2023-04-25T09:45:24;100766.91;;;22.45
63689;BMP280;54895;40.928;14.480;2023-04-25T09:47:55;100763.16;;;22.88
63689;BMP280;54895;40.928;14.480;2023-04-25T09:50:25;100744.75;;;22.87
63689;BMP280;54895;40.928;14.480;2023-04-25T09:53:03;100749.28;;;23.61
63689;BMP280;54895;40.928;14.480;2023-04-25T09:55:53;100742.72;;;23.39
63689;BMP280;54895;40.928;14.480;2023-04-25T09:58:20;100754.09;;;23.36
63689;BMP280;54895;40.928;14.480;2023-04-25T10:00:47;100752.41;;;22.65
63689;BMP280;54895;40.928;14.480;2023-04-25T10:03:26;100728.59;;;23.02
63689;BMP280;54895;40.928;14.480;2023-04-25T10:06:12;100735.69;;;23.34
63689;BMP280;54895;40.928;14.480;2023-04-25T10:08:41;100752.75;;;23.23
63689;BMP280;54895;40.928;14.480;2023-04-25T10:11:08;100744.72;;;23.25
63689;BMP280;54895;40.928;14.480;2023-04-25T10:13:35;100748.50;;;22.93
63689;BMP280;54895;40.928;14.480;2023-04-25T10:16:05;100735.75;;;23.09
63689;BMP280;54895;40.928;14.480;2023-04-25T10:18:32;100743.19;;;22.70
63689;BMP280;54895;40.928;14.480;2023-04-25T10:21:04;100757.94;;;22.42
63689;BMP280;54895;40.928;14.480;2023-04-25T10:23:31;100763.72;;;22.48
63689;BMP280;54895;40.928;14.480;2023-04-25T10:25:59;100765.25;;;23.28
63689;BMP280;54895;40.928;14.480;2023-04-25T10:28:26;100741.38;;;23.00
63689;BMP280;54895;40.928;14.480;2023-04-25T10:31:08;100769.81;;;23.12
63689;BMP280;54895;40.928;14.480;2023-04-25T10:33:39;100716.16;;;22.72
63689;BMP280;54895;40.928;14.480;2023-04-25T10:36:17;100739.06;;;22.69
63689;BMP280;54895;40.928;14.480;2023-04-25T10:38:45;100740.44;;;22.95
63689;BMP280;54895;40.928;14.480;2023-04-25T10:41:13;100740.00;;;23.26
63689;BMP280;54895;40.928;14.480;2023-04-25T10:48:52;100756.16;;;23.10
63689;BMP280;54895;40.928;14.480;2023-04-25T10:51:27;100745.13;;;23.33
63689;BMP280;54895;40.928;14.480;2023-04-25T10:56:23;100740.78;;;23.15
63689;BMP280;54895;40.928;14.480;2023-04-25T10:58:51;100704.78;;;23.01
63689;BMP280;54895;40.928;14.480;2023-04-25T11:01:24;100725.47;;;22.56
63689;BMP280;54895;40.928;14.480;2023-04-25T11:03:57;100707.88;;;22.32
63689;BMP280;54895;40.928;14.480;2023-04-25T11:09:29;100720.31;;;22.48
63689;BMP280;54895;40.928;14.480;2023-04-25T11:11:57;100734.88;;;22.80
63689;BMP280;54895;40.928;14.480;2023-04-25T11:14:25;100705.41;;;23.13
63689;BMP280;54895;40.928;14.480;2023-04-25T11:16:53;100729.13;;;23.39
63689;BMP280;54895;40.928;14.480;2023-04-25T11:19:23;100697.44;;;23.57
63689;BMP280;54895;40.928;14.480;2023-04-25T11:21:57;100717.78;;;23.29
63689;BMP280;54895;40.928;14.480;2023-04-25T11:24:38;100707.94;;;23.91
63689;BMP280;54895;40.928;14.480;2023-04-25T11:27:09;100716.16;;;23.65
63689;BMP280;54895;40.928;14.480;2023-04-25T11:29:36;100693.13;;;23.52
63689;BMP280;54895;40.928;14.480;2023-04-25T11:32:07;100705.34;;;23.93
63689;BMP280;54895;40.928;14.480;2023-04-25T11:34:35;100715.56;;;24.24
63689;BMP280;54895;40.928;14.480;2023-04-25T11:37:04;100713.34;;;23.49
63689;BMP280;54895;40.928;14.480;2023-04-25T11:39:32;100697.66;;;24.03
63689;BMP280;54895;40.928;14.480;2023-04-25T11:41:58;100713.19;;;23.87
63689;BMP280;54895;40.928;14.480;2023-04-25T11:44:25;100709.69;;;23.72
63689;BMP280;54895;40.928;14.480;2023-04-25T11:46:51;100671.31;;;22.96
63689;BMP280;54895;40.928;14.480;2023-04-25T11:49:19;100696.66;;;23.41
63689;BMP280;54895;40.928;14.480;2023-04-25T11:51:48;100692.88;;;24.04
63689;BMP280;54895;40.928;14.480;2023-04-25T11:54:16;100690.09;;;24.02
63689;BMP280;54895;40.928;14.480;2023-04-25T11:56:44;100685.28;;;24.45
63689;BMP280;54895;40.928;14.480;2023-04-25T11:59:11;100675.28;;;24.65
63689;BMP280;54895;40.928;14.480;2023-04-25T12:01:40;100676.25;;;24.11
63689;BMP280;54895;40.928;14.480;2023-04-25T12:04:15;100675.84;;;23.88
63689;BMP280;54895;40.928;14.480;2023-04-25T12:06:44;100672.28;;;24.74
63689;BMP280;54895;40.928;14.480;2023-04-25T12:09:16;100670.63;;;24.52
63689;BMP280;54895;40.928;14.480;2023-04-25T12:11:46;100668.84;;;24.43
63689;BMP280;54895;40.928;14.480;2023-04-25T12:14:24;100676.09;;;24.23
63689;BMP280;54895;40.928;14.480;2023-04-25T12:16:51;100669.56;;;24.28
63689;BMP280;54895;40.928;14.480;2023-04-25T12:19:19;100669.44;;;25.03
63689;BMP280;54895;40.928;14.480;2023-04-25T12:34:58;100650.47;;;24.90
63689;BMP280;54895;40.928;14.480;2023-04-25T12:37:25;100644.66;;;24.04
63689;BMP280;54895;40.928;14.480;2023-04-25T12:39:52;100638.22;;;23.27
63689;BMP280;54895;40.928;14.480;2023-04-25T12:42:19;100618.44;;;23.24
63689;BMP280;54895;40.928;14.480;2023-04-25T12:44:46;100638.72;;;23.23
63689;BMP280;54895;40.928;14.480;2023-04-25T12:47:13;100615.34;;;22.37
63689;BMP280;54895;40.928;14.480;2023-04-25T12:49:41;100629.50;;;22.74
63689;BMP280;54895;40.928;14.480;2023-04-25T12:52:07;100621.09;;;24.09
63689;BMP280;54895;40.928;14.480;2023-04-25T12:54:34;100620.34;;;24.37
63689;BMP280;54895;40.928;14.480;2023-04-25T12:57:01;100626.97;;;24.19
63689;BMP280;54895;40.928;14.480;2023-04-25T12:59:29;100638.13;;;24.09
63689;BMP280;54895;40.928;14.480;2023-04-25T13:01:55;100613.66;;;24.09
63689;BMP280;54895;40.928;14.480;2023-04-25T13:04:22;100633.81;;;23.33
63689;BMP280;54895;40.928;14.480;2023-04-25T13:06:50;100633.47;;;23.54
63689;BMP280;54895;40.928;14.480;2023-04-25T13:09:16;100620.88;;;23.61
63689;BMP280;54895;40.928;14.480;2023-04-25T13:11:43;100626.47;;;23.22
63689;BMP280;54895;40.928;14.480;2023-04-25T13:14:11;100618.63;;;23.01
63689;BMP280;54895;40.928;14.480;2023-04-25T13:16:39;100602.72;;;22.55
63689;BMP280;54895;40.928;14.480;2023-04-25T13:19:05;100620.44;;;23.10
63689;BMP280;54895;40.928;14.480;2023-04-25T13:21:35;100608.38;;;23.13
63689;BMP280;54895;40.928;14.480;2023-04-25T13:24:12;100629.72;;;23.90
63689;BMP280;54895;40.928;14.480;2023-04-25T13:26:44;100602.53;;;22.51
63689;BMP280;54895;40.928;14.480;2023-04-25T13:29:14;100595.16;;;22.40
63689;BMP280;54895;40.928;14.480;2023-04-25T13:31:41;100604.22;;;22.45
63689;BMP280;54895;40.928;14.480;2023-04-25T13:34:07;100592.81;;;22.22
63689;BMP280;54895;40.928;14.480;2023-04-25T13:36:34;100597.50;;;22.08
63689;BMP280;54895;40.928;14.480;2023-04-25T13:39:01;100592.91;;;21.99
63689;BMP280;54895;40.928;14.480;2023-04-25T13:41:27;100613.91;;;21.87
63689;BMP280;54895;40.928;14.480;2023-04-25T13:43:53;100601.25;;;22.27
63689;BMP280;54895;40.928;14.480;2023-04-25T13:46:20;100609.28;;;22.64
63689;BMP280;54895;40.928;14.480;2023-04-25T13:48:46;100575.34;;;22.90
63689;BMP280;54895;40.928;14.480;2023-04-25T13:51:15;100574.13;;;22.93
63689;BMP280;54895;40.928;14.480;2023-04-25T13:53:42;100573.91;;;23.45
63689;BMP280;54895;40.928;14.480;2023-04-25T13:56:08;100578.13;;;23.61
63689;BMP280;54895;40.928;14.480;2023-04-25T13:58:35;100572.41;;;22.99
63689;BMP280;54895;40.928;14.480;2023-04-25T14:01:01;100583.63;;;22.53
63689;BMP280;54895;40.928;14.480;2023-04-25T14:03:30;100569.75;;;23.28
63689;BMP280;54895;40.928;14.480;2023-04-25T14:05:56;100587.13;;;23.79
63689;BMP280;54895;40.928;14.480;2023-04-25T14:08:22;100590.47;;;23.93
63689;BMP280;54895;40.928;14.480;2023-04-25T14:10:49;100581.03;;;24.25
63689;BMP280;54895;40.928;14.480;2023-04-25T14:13:15;100556.91;;;23.73
63689;BMP280;54895;40.928;14.480;2023-04-25T14:15:42;100568.22;;;23.96
63689;BMP280;54895;40.928;14.480;2023-04-25T14:18:08;100564.00;;;23.93
63689;BMP280;54895;40.928;14.480;2023-04-25T14:20:34;100560.41;;;24.84
63689;BMP280;54895;40.928;14.480;2023-04-25T14:30:50;100557.19;;;24.23
63689;BMP280;54895;40.928;14.480;2023-04-25T14:33:17;100548.41;;;24.09
63689;BMP280;54895;40.928;14.480;2023-04-25T14:35:44;100540.31;;;24.11
63689;BMP280;54895;40.928;14.480;2023-04-25T14:38:11;100540.38;;;23.38
63689;BMP280;54895;40.928;14.480;2023-04-25T14:40:38;100547.66;;;23.78
63689;BMP280;54895;40.928;14.480;2023-04-25T14:43:04;100532.75;;;24.25